createdAt,value
2019-01-28T00:01:15.522Z,31.70
2019-01-28T00:03:45.544Z,32.10
2019-01-28T00:06:15.301Z,32.73
2019-01-28T00:08:44.960Z,32.27
2019-01-28T00:11:14.766Z,32.83
2019-01-28T00:13:44.617Z,33.43
2019-01-28T00:16:16.747Z,35.33
2019-01-28T00:18:46.493Z,35.00
2019-01-28T00:21:16.326Z,35.43
2019-01-28T00:23:46.182Z,34.03
2019-01-28T00:26:16.858Z,35.67
2019-01-28T00:28:46.609Z,37.27
2019-01-28T00:31:16.365Z,35.50
2019-01-28T00:33:46.101Z,37.23
2019-01-28T00:36:15.773Z,35.90
2019-01-28T00:38:45.493Z,37.60
2019-01-28T00:41:15.292Z,37.87
2019-01-28T00:43:45.048Z,38.40
2019-01-28T00:46:14.857Z,37.20
2019-01-28T00:48:44.725Z,36.73
2019-01-28T00:51:14.443Z,37.50
2019-01-28T00:53:45.529Z,36.97
2019-01-28T00:56:15.268Z,37.40
2019-01-28T00:58:45.304Z,37.63
2019-01-28T01:01:15.088Z,37.00
2019-01-28T01:03:44.764Z,38.87
2019-01-28T01:06:14.636Z,38.60
2019-01-28T01:08:44.448Z,38.93
2019-01-28T01:11:14.197Z,38.73
2019-01-28T01:13:43.979Z,37.87
2019-01-28T01:16:13.784Z,38.17
2019-01-28T01:18:43.519Z,36.87
2019-01-28T01:21:13.289Z,37.80
2019-01-28T01:23:43.028Z,37.43
2019-01-28T01:26:12.792Z,37.37
2019-01-28T01:28:42.544Z,36.87
2019-01-28T01:31:12.170Z,35.97
2019-01-28T01:33:41.919Z,38.17
2019-01-28T01:36:11.665Z,38.30
2019-01-28T01:38:41.416Z,38.57
2019-01-28T01:41:11.156Z,37.83
2019-01-28T01:43:40.854Z,36.87
2019-01-28T01:46:10.624Z,35.70
2019-01-28T01:48:42.072Z,38.33
2019-01-28T01:51:11.793Z,36.87
2019-01-28T01:53:41.501Z,40.30
2019-01-28T01:56:11.430Z,39.13
2019-01-28T01:58:43.390Z,42.87
2019-01-28T02:01:13.129Z,42.77
2019-01-28T02:03:42.794Z,42.70
2019-01-28T02:06:12.549Z,41.63
2019-01-28T02:08:42.429Z,40.77
2019-01-28T02:11:12.134Z,45.70
2019-01-28T02:13:41.912Z,43.13
2019-01-28T02:16:11.621Z,43.00
2019-01-28T02:18:41.404Z,46.77
2019-01-28T02:21:11.093Z,48.53
2019-01-28T02:23:41.060Z,49.00
2019-01-28T02:26:10.732Z,55.27
2019-01-28T02:28:40.492Z,54.17
2019-01-28T02:31:10.303Z,54.77
2019-01-28T02:33:40.109Z,55.27
2019-01-28T02:36:09.886Z,56.60
2019-01-28T02:38:39.550Z,54.83
2019-01-28T02:41:09.343Z,54.10
2019-01-28T02:43:39.407Z,56.07
2019-01-28T02:46:09.200Z,53.23
2019-01-28T02:48:38.917Z,53.60
2019-01-28T02:51:08.630Z,53.67
2019-01-28T02:53:38.442Z,51.03
2019-01-28T02:56:08.157Z,50.97
2019-01-28T02:58:37.948Z,52.40
2019-01-28T03:01:07.661Z,52.20
2019-01-28T03:03:37.423Z,55.07
2019-01-28T03:06:07.206Z,51.23
2019-01-28T03:08:37.309Z,55.57
2019-01-28T03:11:06.985Z,53.57
2019-01-28T03:13:36.712Z,51.63
2019-01-28T03:16:06.505Z,51.93
2019-01-28T03:18:36.212Z,49.10
2019-01-28T03:21:05.886Z,54.67
2019-01-28T03:23:35.653Z,49.23
2019-01-28T03:26:05.368Z,47.63
2019-01-28T03:28:35.109Z,48.33
2019-01-28T03:31:04.795Z,48.27
2019-01-28T03:33:34.591Z,47.33
2019-01-28T03:36:05.025Z,47.67
2019-01-28T03:38:34.669Z,46.90
2019-01-28T03:41:05.060Z,46.40
2019-01-28T03:43:34.830Z,48.83
2019-01-28T03:46:04.830Z,48.17
2019-01-28T03:48:34.581Z,51.63
2019-01-28T03:51:04.233Z,47.83
2019-01-28T03:53:34.026Z,47.30
2019-01-28T03:56:03.789Z,47.50
2019-01-28T03:58:33.569Z,48.83
2019-01-28T04:01:03.281Z,49.33
2019-01-28T04:03:33.065Z,47.13
2019-01-28T04:06:02.677Z,47.60
2019-01-28T04:08:32.422Z,47.77
2019-01-28T04:11:02.125Z,47.20
2019-01-28T04:13:31.839Z,48.07
2019-01-28T04:16:03.535Z,48.30
2019-01-28T04:18:33.013Z,47.17
2019-01-28T04:21:02.760Z,51.67
2019-01-28T04:23:32.413Z,53.50
2019-01-28T04:26:02.041Z,50.57
2019-01-28T04:28:31.797Z,48.80
2019-01-28T04:31:01.565Z,50.37
2019-01-28T04:33:31.326Z,49.57
2019-01-28T04:36:01.037Z,53.13
2019-01-28T04:38:30.780Z,48.30
2019-01-28T04:41:00.423Z,51.27
2019-01-28T04:43:30.176Z,49.27
2019-01-28T04:45:59.940Z,48.93
2019-01-28T04:48:29.685Z,46.70
2019-01-28T04:50:59.428Z,46.97
2019-01-28T04:53:29.059Z,45.80
2019-01-28T04:55:58.797Z,48.77
2019-01-28T04:58:28.469Z,49.37
2019-01-28T05:00:58.191Z,45.23
2019-01-28T05:03:27.954Z,44.07
2019-01-28T05:05:57.661Z,43.63
2019-01-28T05:08:27.365Z,43.87
2019-01-28T05:10:57.119Z,44.63
2019-01-28T05:13:26.833Z,45.60
2019-01-28T05:15:56.457Z,43.33
2019-01-28T05:18:26.212Z,43.17
2019-01-28T05:20:56.041Z,41.07
2019-01-28T05:23:25.760Z,41.57
2019-01-28T05:25:55.437Z,49.63
2019-01-28T05:28:25.102Z,48.03
2019-01-28T05:30:56.522Z,42.33
2019-01-28T05:33:26.189Z,39.60
2019-01-28T05:35:55.910Z,41.63
2019-01-28T05:38:25.685Z,53.80
2019-01-28T05:40:55.493Z,43.00
2019-01-28T05:43:25.223Z,42.33
2019-01-28T05:45:54.952Z,46.80
2019-01-28T05:48:24.746Z,45.07
2019-01-28T05:50:54.408Z,44.53
2019-01-28T05:53:24.073Z,65.13
2019-01-28T05:55:53.801Z,45.40
2019-01-28T05:58:23.476Z,57.50
2019-01-28T06:00:53.137Z,42.33
2019-01-28T06:03:22.907Z,41.10
2019-01-28T06:05:52.649Z,40.90
2019-01-28T06:08:25.020Z,42.57
2019-01-28T06:10:54.814Z,53.27
2019-01-28T06:13:24.556Z,55.50
2019-01-28T06:15:54.379Z,41.83
2019-01-28T06:18:24.169Z,42.13
2019-01-28T06:20:54.030Z,43.57
2019-01-28T06:23:23.762Z,37.67
2019-01-28T06:25:53.481Z,31.73
2019-01-28T06:28:23.238Z,36.17
2019-01-28T06:30:53.148Z,27.40
2019-01-28T06:33:22.858Z,31.37
2019-01-28T06:35:52.653Z,14.57
2019-01-28T06:38:22.456Z,11.50
2019-01-28T06:40:52.217Z,11.00
2019-01-28T06:43:21.899Z,5.33
2019-01-28T06:45:51.605Z,5.80
2019-01-28T06:48:21.337Z,5.40
2019-01-28T06:50:51.025Z,2.80
2019-01-28T06:53:20.719Z,4.50
2019-01-28T06:55:50.469Z,2.80
2019-01-28T06:58:20.205Z,2.70
2019-01-28T07:00:49.979Z,2.17
2019-01-28T07:03:21.689Z,2.40
2019-01-28T07:05:51.152Z,2.07
2019-01-28T07:08:20.812Z,2.20
2019-01-28T07:10:50.542Z,2.20
2019-01-28T07:13:20.200Z,2.80
2019-01-28T07:15:49.885Z,2.67
2019-01-28T07:18:19.652Z,2.50
2019-01-28T07:20:49.378Z,2.20
2019-01-28T07:23:19.129Z,2.73
2019-01-28T07:25:48.801Z,2.37
2019-01-28T07:28:18.509Z,2.43
2019-01-28T07:30:48.317Z,2.60
2019-01-28T07:33:18.045Z,2.33
2019-01-28T07:35:47.866Z,2.40
2019-01-28T07:38:17.617Z,2.87
2019-01-28T07:40:48.363Z,3.20
2019-01-28T07:43:18.109Z,2.87
2019-01-28T07:45:47.833Z,3.03
2019-01-28T07:48:17.551Z,3.10
2019-01-28T07:50:47.204Z,2.77
2019-01-28T07:53:17.047Z,3.00
2019-01-28T07:55:46.805Z,3.07
2019-01-28T07:58:16.555Z,3.37
2019-01-28T08:00:46.461Z,3.20
2019-01-28T08:03:16.233Z,3.37
2019-01-28T08:05:45.946Z,4.20
2019-01-28T08:08:15.700Z,3.83
2019-01-28T08:10:45.329Z,3.67
2019-01-28T08:13:15.141Z,4.37
2019-01-28T08:15:45.023Z,4.20
2019-01-28T08:18:14.756Z,4.20
2019-01-28T08:20:44.617Z,4.10
2019-01-28T08:23:14.369Z,4.63
2019-01-28T08:25:44.062Z,4.23
2019-01-28T08:28:13.836Z,4.20
2019-01-28T08:30:43.737Z,4.43
2019-01-28T08:33:13.511Z,3.97
2019-01-28T08:35:43.229Z,4.30
2019-01-28T08:38:14.378Z,4.43
2019-01-28T08:40:44.052Z,3.97
2019-01-28T08:43:14.685Z,4.50
2019-01-28T08:45:44.598Z,4.40
2019-01-28T08:48:18.427Z,4.50
2019-01-28T08:50:45.992Z,4.23
2019-01-28T08:53:15.849Z,4.30
2019-01-28T08:55:45.729Z,4.83
2019-01-28T08:58:15.437Z,4.47
2019-01-28T09:00:45.258Z,4.13
2019-01-28T09:03:15.150Z,4.47
2019-01-28T09:05:44.954Z,4.50
2019-01-28T09:08:14.695Z,4.90
2019-01-28T09:10:44.461Z,4.53
2019-01-28T09:13:14.201Z,4.60
2019-01-28T09:15:44.227Z,4.80
2019-01-28T09:18:14.101Z,4.73
2019-01-28T09:20:43.991Z,4.37
2019-01-28T09:23:13.838Z,5.03
2019-01-28T09:25:43.729Z,4.60
2019-01-28T09:28:14.650Z,4.73
2019-01-28T09:30:44.319Z,4.70
2019-01-28T09:33:14.001Z,4.93
2019-01-28T09:35:43.816Z,4.70
2019-01-28T09:38:13.488Z,5.03
2019-01-28T09:40:43.261Z,4.90
2019-01-28T09:43:13.021Z,4.77
2019-01-28T09:45:43.691Z,4.67
2019-01-28T09:48:16.721Z,4.50
2019-01-28T09:50:47.057Z,3.90
2019-01-28T09:53:16.880Z,4.30
2019-01-28T09:55:46.723Z,4.27
2019-01-28T09:58:16.503Z,4.20
2019-01-28T10:00:49.067Z,4.53
2019-01-28T10:03:18.827Z,4.20
2019-01-28T10:05:48.564Z,4.50
2019-01-28T10:08:18.509Z,4.30
2019-01-28T10:10:48.381Z,4.00
2019-01-28T10:13:18.204Z,3.77
2019-01-28T10:15:48.201Z,4.40
2019-01-28T10:18:17.893Z,4.00
2019-01-28T10:20:49.213Z,4.00
2019-01-28T10:23:19.660Z,3.63
2019-01-28T10:25:49.637Z,3.63
2019-01-28T10:28:19.378Z,4.03
2019-01-28T10:30:49.764Z,4.17
2019-01-28T10:33:19.650Z,3.83
2019-01-28T10:35:49.490Z,3.70
2019-01-28T10:38:19.450Z,3.40
2019-01-28T10:40:49.530Z,3.87
2019-01-28T10:43:19.378Z,3.23
2019-01-28T10:45:49.120Z,3.57
2019-01-28T10:48:19.097Z,3.80
2019-01-28T10:50:48.844Z,3.47
2019-01-28T10:53:18.616Z,3.53
2019-01-28T10:55:50.762Z,3.73
2019-01-28T10:58:20.429Z,3.70
2019-01-28T11:00:51.420Z,3.30
2019-01-28T11:03:23.271Z,3.40
2019-01-28T11:05:53.432Z,3.20
2019-01-28T11:08:23.330Z,3.00
2019-01-28T11:10:53.282Z,3.30
2019-01-28T11:13:23.044Z,3.70
2019-01-28T11:15:52.892Z,3.10
2019-01-28T11:18:25.762Z,3.13
2019-01-28T11:20:55.521Z,3.37
2019-01-28T11:23:25.371Z,3.00
2019-01-28T11:25:55.214Z,3.23
2019-01-28T11:28:24.978Z,3.60
2019-01-28T11:30:59.999Z,3.13
2019-01-28T11:33:30.338Z,3.43
2019-01-28T11:36:05.337Z,3.50
2019-01-28T11:38:31.881Z,3.70
2019-01-28T11:41:01.810Z,3.87
2019-01-28T11:43:31.744Z,3.43
2019-01-28T11:46:03.435Z,3.27
2019-01-28T11:48:33.108Z,3.07
2019-01-28T11:51:02.914Z,3.47
2019-01-28T11:53:32.704Z,3.53
2019-01-28T11:56:02.509Z,3.27
2019-01-28T11:58:32.280Z,2.87
2019-01-28T12:01:24.809Z,3.10
2019-01-28T12:03:54.629Z,3.40
2019-01-28T12:06:24.388Z,2.93
2019-01-28T12:08:54.049Z,3.30
2019-01-28T12:11:23.832Z,3.03
2019-01-28T12:13:53.489Z,2.77
2019-01-28T12:16:23.282Z,3.33
2019-01-28T12:18:52.945Z,3.13
2019-01-28T12:21:22.642Z,3.00
2019-01-28T12:23:52.350Z,3.50
2019-01-28T12:26:22.161Z,3.03
2019-01-28T12:28:51.944Z,3.00
2019-01-28T12:31:21.738Z,3.23
2019-01-28T12:33:51.517Z,3.10
2019-01-28T12:36:21.225Z,3.10
2019-01-28T12:38:51.039Z,2.80
2019-01-28T12:41:20.807Z,3.17
2019-01-28T12:43:50.673Z,3.30
2019-01-28T12:46:20.473Z,3.13
2019-01-28T12:48:50.274Z,2.83
2019-01-28T12:51:20.015Z,2.90
2019-01-28T12:53:49.736Z,2.63
2019-01-28T12:56:21.229Z,2.90
2019-01-28T12:58:51.075Z,2.93
2019-01-28T13:01:20.831Z,2.37
2019-01-28T13:03:50.642Z,2.93
2019-01-28T13:06:20.464Z,2.87
2019-01-28T13:08:50.156Z,2.57
2019-01-28T13:11:19.993Z,2.63
2019-01-28T13:13:49.777Z,2.70
2019-01-28T13:16:19.730Z,3.00
2019-01-28T13:18:49.475Z,2.50
2019-01-28T13:21:19.214Z,3.03
2019-01-28T13:23:49.030Z,2.87
2019-01-28T13:26:18.844Z,2.60
2019-01-28T13:28:48.622Z,2.40
2019-01-28T13:31:18.544Z,2.77
2019-01-28T13:33:48.265Z,2.70
2019-01-28T13:36:18.018Z,4.23
2019-01-28T13:38:47.679Z,2.90
2019-01-28T13:41:17.318Z,2.97
2019-01-28T13:43:47.045Z,2.93
2019-01-28T13:46:16.784Z,2.63
2019-01-28T13:48:46.526Z,2.50
2019-01-28T13:51:16.282Z,2.77
2019-01-28T13:53:46.018Z,2.90
2019-01-28T13:56:15.790Z,2.50
2019-01-28T13:58:45.546Z,2.83
2019-01-28T14:01:15.574Z,2.83
2019-01-28T14:03:45.374Z,2.73
2019-01-28T14:06:15.101Z,2.67
2019-01-28T14:08:44.905Z,2.80
2019-01-28T14:11:14.581Z,2.90
2019-01-28T14:13:44.353Z,2.50
2019-01-28T14:16:14.073Z,2.90
2019-01-28T14:18:43.801Z,2.50
2019-01-28T14:21:13.604Z,2.80
2019-01-28T14:23:43.390Z,2.70
2019-01-28T14:26:13.178Z,3.17
2019-01-28T14:28:42.904Z,2.63
2019-01-28T14:31:13.913Z,2.70
2019-01-28T14:33:43.532Z,3.00
2019-01-28T14:36:13.352Z,2.70
2019-01-28T14:38:43.065Z,4.77
2019-01-28T14:41:12.940Z,4.33
2019-01-28T14:43:42.681Z,4.00
2019-01-28T14:46:12.416Z,2.60
2019-01-28T14:48:49.109Z,3.53
2019-01-28T14:51:13.793Z,4.20
2019-01-28T14:53:43.586Z,3.63
2019-01-28T14:56:13.381Z,3.10
2019-01-28T14:58:43.144Z,3.00
2019-01-28T15:01:12.916Z,2.70
2019-01-28T15:03:42.600Z,3.10
2019-01-28T15:06:12.348Z,3.07
2019-01-28T15:08:42.085Z,3.03
2019-01-28T15:11:11.961Z,3.20
2019-01-28T15:13:41.683Z,3.53
2019-01-28T15:16:11.527Z,2.90
2019-01-28T15:18:41.393Z,3.00
2019-01-28T15:21:11.245Z,2.63
2019-01-28T15:23:40.920Z,2.90
2019-01-28T15:26:10.686Z,3.00
2019-01-28T15:28:40.341Z,3.03
2019-01-28T15:31:10.125Z,2.90
2019-01-28T15:33:39.830Z,2.67
2019-01-28T15:36:09.573Z,3.27
2019-01-28T15:38:39.341Z,2.70
2019-01-28T15:41:09.164Z,3.13
2019-01-28T15:43:38.933Z,2.63
2019-01-28T15:46:08.728Z,2.60
2019-01-28T15:48:38.613Z,2.60
2019-01-28T15:51:08.426Z,2.50
2019-01-28T15:53:38.199Z,2.90
2019-01-28T15:56:08.203Z,2.80
2019-01-28T15:58:37.963Z,2.47
2019-01-28T16:01:07.824Z,2.67
2019-01-28T16:03:37.542Z,2.50
2019-01-28T16:06:07.227Z,3.17
2019-01-28T16:08:36.920Z,3.40
2019-01-28T16:11:06.625Z,3.57
2019-01-28T16:13:36.366Z,4.00
2019-01-28T16:16:06.525Z,3.80
2019-01-28T16:18:36.166Z,3.60
2019-01-28T16:21:07.302Z,3.13
2019-01-28T16:23:37.133Z,3.23
2019-01-28T16:26:07.281Z,3.00
2019-01-28T16:28:37.040Z,2.90
2019-01-28T16:31:06.977Z,3.40
2019-01-28T16:33:36.787Z,2.90
2019-01-28T16:36:07.653Z,2.60
2019-01-28T16:38:37.456Z,2.60
2019-01-28T16:41:07.251Z,2.60
2019-01-28T16:43:37.085Z,2.50
2019-01-28T16:46:06.985Z,2.80
2019-01-28T16:48:36.887Z,2.50
2019-01-28T16:51:06.937Z,2.83
2019-01-28T16:53:36.720Z,2.77
2019-01-28T16:56:06.654Z,4.07
2019-01-28T16:58:36.399Z,3.20
2019-01-28T17:01:06.099Z,3.13
2019-01-28T17:03:35.837Z,4.03
2019-01-28T17:06:06.480Z,3.40
2019-01-28T17:08:36.225Z,3.20
2019-01-28T17:11:06.005Z,3.60
2019-01-28T17:13:35.685Z,3.67
2019-01-28T17:16:05.812Z,3.00
2019-01-28T17:18:35.522Z,4.00
2019-01-28T17:21:05.640Z,2.90
2019-01-28T17:23:35.411Z,2.73
2019-01-28T17:26:05.227Z,3.10
2019-01-28T17:28:34.946Z,3.03
2019-01-28T17:31:04.752Z,2.63
2019-01-28T17:33:34.425Z,2.20
2019-01-28T17:36:04.169Z,2.87
2019-01-28T17:38:33.951Z,2.30
2019-01-28T17:41:03.718Z,2.17
2019-01-28T17:43:33.520Z,2.00
2019-01-28T17:46:03.219Z,2.10
2019-01-28T17:48:33.030Z,2.33
2019-01-28T17:51:02.750Z,2.03
2019-01-28T17:53:32.393Z,2.20
2019-01-28T17:56:02.205Z,2.00
2019-01-28T17:58:31.929Z,2.40
2019-01-28T18:01:01.765Z,1.80
2019-01-28T18:03:31.542Z,2.07
2019-01-28T18:06:01.299Z,2.33
2019-01-28T18:08:30.966Z,2.73
2019-01-28T18:11:00.701Z,2.33
2019-01-28T18:13:31.349Z,2.60
2019-01-28T18:16:01.108Z,2.20
2019-01-28T18:18:30.833Z,3.53
2019-01-28T18:21:00.536Z,3.33
2019-01-28T18:23:33.650Z,3.07
2019-01-28T18:26:03.442Z,2.60
2019-01-28T18:28:33.133Z,2.50
2019-01-28T18:31:02.976Z,2.20
2019-01-28T18:33:32.756Z,2.03
2019-01-28T18:36:05.642Z,2.80
2019-01-28T18:38:34.068Z,3.10
2019-01-28T18:41:04.230Z,2.63
2019-01-28T18:43:33.973Z,3.67
2019-01-28T18:46:03.848Z,3.30
2019-01-28T18:48:33.638Z,2.80
2019-01-28T18:51:03.466Z,2.70
2019-01-28T18:53:33.283Z,2.73
2019-01-28T18:56:03.130Z,3.37
2019-01-28T18:58:32.968Z,2.63
2019-01-28T19:01:04.250Z,2.50
2019-01-28T19:03:34.035Z,3.13
2019-01-28T19:06:15.899Z,3.10
2019-01-28T19:08:52.003Z,2.60
2019-01-28T19:11:36.147Z,3.70
2019-01-28T19:14:21.818Z,9.50
2019-01-28T19:17:07.322Z,3.17
2019-01-28T19:20:04.744Z,5.30
2019-01-28T19:22:34.503Z,2.80
2019-01-28T19:25:05.045Z,4.57
2019-01-28T19:27:34.917Z,3.80
2019-01-28T19:30:07.234Z,2.83
2019-01-28T19:32:36.931Z,3.20
2019-01-28T19:35:07.069Z,3.53
2019-01-28T19:37:36.838Z,4.60
2019-01-28T19:40:08.157Z,3.50
2019-01-28T19:42:38.016Z,2.70
2019-01-28T19:45:11.425Z,4.10
2019-01-28T19:47:41.118Z,3.83
2019-01-28T19:50:14.850Z,3.50
2019-01-28T19:52:44.468Z,4.47
2019-01-28T19:55:14.638Z,3.03
2019-01-28T19:57:44.448Z,2.67
2019-01-28T20:00:18.143Z,2.70
2019-01-28T20:02:47.938Z,3.40
2019-01-28T20:05:17.720Z,3.80
2019-01-28T20:07:47.345Z,3.67
2019-01-28T20:10:17.173Z,3.77
2019-01-28T20:12:46.992Z,3.43
2019-01-28T20:15:17.901Z,3.50
2019-01-28T20:17:47.694Z,3.00
2019-01-28T20:20:17.886Z,2.60
2019-01-28T20:22:47.760Z,3.40
2019-01-28T20:25:17.916Z,2.43
2019-01-28T20:27:47.575Z,2.20
2019-01-28T20:30:22.662Z,2.13
2019-01-28T20:32:52.378Z,2.50
2019-01-28T20:35:22.151Z,2.00
2019-01-28T20:37:51.897Z,1.87
2019-01-28T20:40:21.571Z,2.50
2019-01-28T20:42:51.208Z,2.17
2019-01-28T20:45:22.431Z,2.20
2019-01-28T20:47:52.198Z,1.87
2019-01-28T20:50:24.200Z,2.70
2019-01-28T20:52:53.948Z,2.13
2019-01-28T20:55:23.722Z,1.93
2019-01-28T20:57:53.646Z,1.60
2019-01-28T21:00:25.162Z,1.67
2019-01-28T21:02:55.130Z,1.60
2019-01-28T21:05:25.728Z,1.70
2019-01-28T21:07:55.699Z,1.90
2019-01-28T21:10:25.564Z,2.37
2019-01-28T21:12:55.479Z,2.30
2019-01-28T21:15:26.538Z,1.97
2019-01-28T21:17:56.269Z,2.00
2019-01-28T21:20:26.009Z,1.93
2019-01-28T21:22:56.048Z,1.70
2019-01-28T21:25:26.681Z,1.53
2019-01-28T21:27:57.067Z,1.97
2019-01-28T21:30:29.276Z,1.47
2019-01-28T21:32:59.076Z,1.40
2019-01-28T21:35:50.703Z,1.50
2019-01-28T21:38:26.258Z,1.50
2019-01-28T21:40:55.959Z,2.20
2019-01-28T21:43:25.689Z,1.60
2019-01-28T21:45:55.793Z,1.60
2019-01-28T21:48:25.563Z,1.27
2019-01-28T21:50:55.349Z,1.67
2019-01-28T21:53:25.074Z,1.20
2019-01-28T21:55:54.894Z,1.33
2019-01-28T21:58:24.533Z,1.30
2019-01-28T22:00:54.298Z,1.83
2019-01-28T22:03:25.018Z,1.60
2019-01-28T22:05:54.948Z,1.73
2019-01-28T22:08:24.660Z,1.60
2019-01-28T22:10:54.406Z,1.67
2019-01-28T22:13:24.107Z,1.73
2019-01-28T22:15:53.852Z,1.50
2019-01-28T22:18:23.549Z,1.70
2019-01-28T22:20:53.184Z,1.70
2019-01-28T22:23:22.951Z,1.50
2019-01-28T22:25:52.741Z,1.47
2019-01-28T22:28:22.604Z,1.70
2019-01-28T22:30:52.369Z,1.70
2019-01-28T22:33:22.084Z,1.90
2019-01-28T22:35:51.828Z,1.70
2019-01-28T22:38:22.743Z,1.80
2019-01-28T22:40:52.586Z,1.77
2019-01-28T22:43:22.310Z,1.50
2019-01-28T22:45:52.005Z,1.80
2019-01-28T22:48:21.657Z,1.50
2019-01-28T22:50:51.531Z,1.53
2019-01-28T22:53:21.275Z,1.30
2019-01-28T22:55:50.980Z,1.23
2019-01-28T22:58:20.732Z,1.40
2019-01-28T23:01:13.521Z,1.63
2019-01-28T23:03:43.364Z,1.30
2019-01-28T23:06:13.213Z,1.57
2019-01-28T23:08:42.877Z,1.50
2019-01-28T23:11:12.569Z,1.37
2019-01-28T23:13:42.630Z,1.60
2019-01-28T23:16:12.357Z,1.50
2019-01-28T23:18:41.996Z,1.43
2019-01-28T23:21:11.734Z,1.40
2019-01-28T23:23:41.562Z,1.43
2019-01-28T23:26:11.363Z,1.60
2019-01-28T23:28:41.156Z,1.43
2019-01-28T23:31:10.992Z,1.50
2019-01-28T23:33:40.705Z,1.37
2019-01-28T23:36:10.503Z,1.50
2019-01-28T23:38:40.325Z,1.37
2019-01-28T23:41:10.046Z,1.67
2019-01-28T23:43:39.838Z,1.60
2019-01-28T23:46:09.717Z,1.90
2019-01-28T23:48:39.617Z,1.27
2019-01-28T23:51:09.421Z,1.60
2019-01-28T23:53:39.201Z,1.40
2019-01-28T23:56:08.972Z,1.60
2019-01-28T23:58:38.733Z,1.60
